sensor_id;sensor_type;location;lat;lon;timestamp;P1;durP1;ratioP1;P2;durP2;ratioP2
24897;SDS011;12957;49.434;8.684;2023-04-25T00:01:20;8.27;;;5.38;;
24897;SDS011;12957;49.434;8.684;2023-04-25T00:03:47;5.68;;;5.07;;
24897;SDS011;12957;49.434;8.684;2023-04-25T00:06:12;8.65;;;6.25;;
24897;SDS011;12957;49.434;8.684;2023-04-25T00:08:38;7.07;;;5.43;;
24897;SDS011;12957;49.434;8.684;2023-04-25T00:11:04;8.43;;;5.63;;
24897;SDS011;12957;49.434;8.684;2023-04-25T00:13:30;7.28;;;5.45;;
24897;SDS011;12957;49.434;8.684;2023-04-25T00:15:55;7.80;;;5.63;;
24897;SDS011;12957;49.434;8.684;2023-04-25T00:18:23;9.70;;;5.88;;
24897;SDS011;12957;49.434;8.684;2023-04-25T00:20:49;6.60;;;5.47;;
24897;SDS011;12957;49.434;8.684;2023-04-25T00:23:15;7.07;;;5.47;;
24897;SDS011;12957;49.434;8.684;2023-04-25T00:25:48;8.48;;;5.40;;
24897;SDS011;12957;49.434;8.684;2023-04-25T00:28:14;6.18;;;5.50;;
24897;SDS011;12957;49.434;8.684;2023-04-25T00:30:40;8.80;;;5.53;;
24897;SDS011;12957;49.434;8.684;2023-04-25T00:33:06;11.45;;;6.25;;
24897;SDS011;12957;49.434;8.684;2023-04-25T00:35:31;9.45;;;6.30;;
24897;SDS011;12957;49.434;8.684;2023-04-25T00:37:57;7.40;;;5.85;;
24897;SDS011;12957;49.434;8.684;2023-04-25T00:40:23;9.38;;;6.43;;
24897;SDS011;12957;49.434;8.684;2023-04-25T00:42:48;8.00;;;5.40;;
24897;SDS011;12957;49.434;8.684;2023-04-25T00:45:14;6.05;;;5.43;;
24897;SDS011;12957;49.434;8.684;2023-04-25T00:47:40;5.82;;;5.22;;
24897;SDS011;12957;49.434;8.684;2023-04-25T00:50:06;6.43;;;5.72;;
24897;SDS011;12957;49.434;8.684;2023-04-25T00:52:32;9.90;;;5.40;;
24897;SDS011;12957;49.434;8.684;2023-04-25T00:54:58;6.03;;;4.85;;
24897;SDS011;12957;49.434;8.684;2023-04-25T00:57:24;8.07;;;5.40;;
24897;SDS011;12957;49.434;8.684;2023-04-25T00:59:50;8.38;;;5.20;;
24897;SDS011;12957;49.434;8.684;2023-04-25T01:02:16;5.88;;;5.20;;
24897;SDS011;12957;49.434;8.684;2023-04-25T01:04:42;8.13;;;5.20;;
24897;SDS011;12957;49.434;8.684;2023-04-25T01:07:07;8.77;;;5.60;;
24897;SDS011;12957;49.434;8.684;2023-04-25T01:09:34;6.75;;;5.82;;
24897;SDS011;12957;49.434;8.684;2023-04-25T01:12:00;6.18;;;4.95;;
24897;SDS011;12957;49.434;8.684;2023-04-25T01:14:26;5.43;;;4.78;;
24897;SDS011;12957;49.434;8.684;2023-04-25T01:16:51;5.95;;;5.07;;
24897;SDS011;12957;49.434;8.684;2023-04-25T01:19:17;7.38;;;4.75;;
24897;SDS011;12957;49.434;8.684;2023-04-25T01:21:43;7.47;;;4.97;;
24897;SDS011;12957;49.434;8.684;2023-04-25T01:24:10;5.70;;;4.70;;
24897;SDS011;12957;49.434;8.684;2023-04-25T01:26:35;7.75;;;5.50;;
24897;SDS011;12957;49.434;8.684;2023-04-25T01:29:01;5.20;;;4.70;;
24897;SDS011;12957;49.434;8.684;2023-04-25T01:31:27;6.45;;;4.72;;
24897;SDS011;12957;49.434;8.684;2023-04-25T01:33:52;5.85;;;4.60;;
24897;SDS011;12957;49.434;8.684;2023-04-25T01:36:18;5.05;;;4.40;;
24897;SDS011;12957;49.434;8.684;2023-04-25T01:38:44;7.78;;;4.82;;
24897;SDS011;12957;49.434;8.684;2023-04-25T01:41:11;5.25;;;4.55;;
24897;SDS011;12957;49.434;8.684;2023-04-25T01:43:36;6.25;;;4.70;;
24897;SDS011;12957;49.434;8.684;2023-04-25T01:46:02;6.68;;;4.97;;
24897;SDS011;12957;49.434;8.684;2023-04-25T01:48:28;6.25;;;4.60;;
24897;SDS011;12957;49.434;8.684;2023-04-25T01:50:53;6.68;;;4.90;;
24897;SDS011;12957;49.434;8.684;2023-04-25T01:53:19;6.32;;;4.97;;
24897;SDS011;12957;49.434;8.684;2023-04-25T01:55:44;8.32;;;4.82;;
24897;SDS011;12957;49.434;8.684;2023-04-25T01:58:10;5.80;;;4.80;;
24897;SDS011;12957;49.434;8.684;2023-04-25T02:00:38;5.30;;;4.80;;
24897;SDS011;12957;49.434;8.684;2023-04-25T02:03:04;8.63;;;4.95;;
24897;SDS011;12957;49.434;8.684;2023-04-25T02:05:36;7.57;;;5.50;;
24897;SDS011;12957;49.434;8.684;2023-04-25T02:08:03;5.63;;;4.53;;
24897;SDS011;12957;49.434;8.684;2023-04-25T02:10:32;9.02;;;4.78;;
24897;SDS011;12957;49.434;8.684;2023-04-25T02:12:58;8.73;;;5.30;;
24897;SDS011;12957;49.434;8.684;2023-04-25T02:15:23;7.13;;;5.25;;
24897;SDS011;12957;49.434;8.684;2023-04-25T02:17:49;8.77;;;6.18;;
24897;SDS011;12957;49.434;8.684;2023-04-25T02:20:15;8.43;;;6.00;;
24897;SDS011;12957;49.434;8.684;2023-04-25T02:22:44;8.73;;;5.97;;
24897;SDS011;12957;49.434;8.684;2023-04-25T02:25:10;7.43;;;6.00;;
24897;SDS011;12957;49.434;8.684;2023-04-25T02:27:36;8.05;;;6.53;;
24897;SDS011;12957;49.434;8.684;2023-04-25T02:30:02;12.30;;;6.32;;
24897;SDS011;12957;49.434;8.684;2023-04-25T02:32:31;13.50;;;6.65;;
24897;SDS011;12957;49.434;8.684;2023-04-25T02:34:56;9.85;;;7.28;;
24897;SDS011;12957;49.434;8.684;2023-04-25T02:37:24;12.48;;;7.70;;
24897;SDS011;12957;49.434;8.684;2023-04-25T02:39:50;6.47;;;5.63;;
24897;SDS011;12957;49.434;8.684;2023-04-25T02:42:15;8.50;;;6.47;;
24897;SDS011;12957;49.434;8.684;2023-04-25T02:44:41;11.68;;;7.22;;
24897;SDS011;12957;49.434;8.684;2023-04-25T02:47:06;11.35;;;6.97;;
24897;SDS011;12957;49.434;8.684;2023-04-25T02:49:32;9.93;;;7.05;;
24897;SDS011;12957;49.434;8.684;2023-04-25T02:51:57;12.30;;;7.63;;
24897;SDS011;12957;49.434;8.684;2023-04-25T02:54:23;12.68;;;8.00;;
24897;SDS011;12957;49.434;8.684;2023-04-25T02:56:48;9.60;;;7.07;;
24897;SDS011;12957;49.434;8.684;2023-04-25T02:59:14;17.83;;;7.90;;
24897;SDS011;12957;49.434;8.684;2023-04-25T03:01:39;11.70;;;8.35;;
24897;SDS011;12957;49.434;8.684;2023-04-25T03:04:05;14.27;;;9.43;;
24897;SDS011;12957;49.434;8.684;2023-04-25T03:06:30;13.27;;;9.18;;
24897;SDS011;12957;49.434;8.684;2023-04-25T03:08:55;14.55;;;9.23;;
24897;SDS011;12957;49.434;8.684;2023-04-25T03:11:21;15.07;;;9.55;;
24897;SDS011;12957;49.434;8.684;2023-04-25T03:13:46;13.85;;;9.30;;
24897;SDS011;12957;49.434;8.684;2023-04-25T03:16:12;13.80;;;8.90;;
24897;SDS011;12957;49.434;8.684;2023-04-25T03:18:37;16.67;;;9.95;;
24897;SDS011;12957;49.434;8.684;2023-04-25T03:21:03;14.77;;;9.55;;
24897;SDS011;12957;49.434;8.684;2023-04-25T03:23:28;12.23;;;9.02;;
24897;SDS011;12957;49.434;8.684;2023-04-25T03:25:54;14.98;;;10.32;;
24897;SDS011;12957;49.434;8.684;2023-04-25T03:28:20;17.55;;;10.70;;
24897;SDS011;12957;49.434;8.684;2023-04-25T03:30:45;16.30;;;9.88;;
24897;SDS011;12957;49.434;8.684;2023-04-25T03:33:10;15.00;;;9.55;;
24897;SDS011;12957;49.434;8.684;2023-04-25T03:35:36;15.73;;;10.48;;
24897;SDS011;12957;49.434;8.684;2023-04-25T03:38:01;17.83;;;10.70;;
24897;SDS011;12957;49.434;8.684;2023-04-25T03:40:27;17.95;;;10.18;;
24897;SDS011;12957;49.434;8.684;2023-04-25T03:42:53;19.52;;;9.85;;
24897;SDS011;12957;49.434;8.684;2023-04-25T03:45:18;18.00;;;10.45;;
24897;SDS011;12957;49.434;8.684;2023-04-25T03:47:43;17.02;;;9.70;;
24897;SDS011;12957;49.434;8.684;2023-04-25T03:50:09;16.52;;;10.15;;
24897;SDS011;12957;49.434;8.684;2023-04-25T03:52:35;17.88;;;11.13;;
24897;SDS011;12957;49.434;8.684;2023-04-25T03:55:00;16.02;;;10.23;;
24897;SDS011;12957;49.434;8.684;2023-04-25T03:57:26;16.63;;;10.05;;
24897;SDS011;12957;49.434;8.684;2023-04-25T03:59:51;16.38;;;10.27;;
24897;SDS011;12957;49.434;8.684;2023-04-25T04:02:17;19.92;;;11.07;;
24897;SDS011;12957;49.434;8.684;2023-04-25T04:04:43;15.23;;;10.82;;
24897;SDS011;12957;49.434;8.684;2023-04-25T04:07:09;16.13;;;10.25;;
24897;SDS011;12957;49.434;8.684;2023-04-25T04:09:35;15.85;;;10.57;;
24897;SDS011;12957;49.434;8.684;2023-04-25T04:12:00;17.75;;;9.63;;
24897;SDS011;12957;49.434;8.684;2023-04-25T04:14:26;18.33;;;11.38;;
24897;SDS011;12957;49.434;8.684;2023-04-25T04:16:53;16.80;;;10.15;;
24897;SDS011;12957;49.434;8.684;2023-04-25T04:19:18;17.23;;;10.25;;
24897;SDS011;12957;49.434;8.684;2023-04-25T04:21:44;14.50;;;10.30;;
24897;SDS011;12957;49.434;8.684;2023-04-25T04:24:09;18.52;;;10.35;;
24897;SDS011;12957;49.434;8.684;2023-04-25T04:26:35;16.20;;;10.43;;
24897;SDS011;12957;49.434;8.684;2023-04-25T04:29:02;16.60;;;10.55;;
24897;SDS011;12957;49.434;8.684;2023-04-25T04:31:27;17.25;;;10.57;;
24897;SDS011;12957;49.434;8.684;2023-04-25T04:33:53;16.67;;;10.70;;
24897;SDS011;12957;49.434;8.684;2023-04-25T04:36:18;16.63;;;10.70;;
24897;SDS011;12957;49.434;8.684;2023-04-25T04:38:48;15.35;;;9.80;;
24897;SDS011;12957;49.434;8.684;2023-04-25T04:41:13;16.35;;;10.80;;
24897;SDS011;12957;49.434;8.684;2023-04-25T04:43:39;15.15;;;10.35;;
24897;SDS011;12957;49.434;8.684;2023-04-25T04:46:05;18.00;;;10.75;;
24897;SDS011;12957;49.434;8.684;2023-04-25T04:48:33;16.92;;;10.05;;
24897;SDS011;12957;49.434;8.684;2023-04-25T04:50:59;17.17;;;10.40;;
24897;SDS011;12957;49.434;8.684;2023-04-25T04:53:25;22.65;;;11.93;;
24897;SDS011;12957;49.434;8.684;2023-04-25T04:55:51;21.70;;;10.98;;
24897;SDS011;12957;49.434;8.684;2023-04-25T04:58:16;15.65;;;10.75;;
24897;SDS011;12957;49.434;8.684;2023-04-25T05:00:42;16.10;;;10.15;;
24897;SDS011;12957;49.434;8.684;2023-04-25T05:03:07;14.13;;;10.00;;
24897;SDS011;12957;49.434;8.684;2023-04-25T05:05:33;17.58;;;10.02;;
24897;SDS011;12957;49.434;8.684;2023-04-25T05:07:58;16.10;;;9.38;;
24897;SDS011;12957;49.434;8.684;2023-04-25T05:10:24;16.17;;;10.93;;
24897;SDS011;12957;49.434;8.684;2023-04-25T05:12:50;14.27;;;9.75;;
24897;SDS011;12957;49.434;8.684;2023-04-25T05:15:16;20.38;;;9.73;;
24897;SDS011;12957;49.434;8.684;2023-04-25T05:17:41;13.57;;;9.63;;
24897;SDS011;12957;49.434;8.684;2023-04-25T05:20:07;15.18;;;9.57;;
24897;SDS011;12957;49.434;8.684;2023-04-25T05:22:34;18.55;;;11.45;;
24897;SDS011;12957;49.434;8.684;2023-04-25T05:25:00;17.73;;;10.55;;
24897;SDS011;12957;49.434;8.684;2023-04-25T05:27:26;14.95;;;9.80;;
24897;SDS011;12957;49.434;8.684;2023-04-25T05:29:51;15.52;;;9.85;;
24897;SDS011;12957;49.434;8.684;2023-04-25T05:32:17;16.83;;;10.32;;
24897;SDS011;12957;49.434;8.684;2023-04-25T05:34:43;24.17;;;11.38;;
24897;SDS011;12957;49.434;8.684;2023-04-25T05:37:08;19.58;;;11.57;;
24897;SDS011;12957;49.434;8.684;2023-04-25T05:39:34;19.40;;;11.93;;
24897;SDS011;12957;49.434;8.684;2023-04-25T05:41:59;17.13;;;10.40;;
24897;SDS011;12957;49.434;8.684;2023-04-25T05:44:26;16.90;;;10.52;;
24897;SDS011;12957;49.434;8.684;2023-04-25T05:46:52;17.00;;;11.25;;
24897;SDS011;12957;49.434;8.684;2023-04-25T05:49:18;15.13;;;10.52;;
24897;SDS011;12957;49.434;8.684;2023-04-25T05:51:43;16.92;;;10.60;;
24897;SDS011;12957;49.434;8.684;2023-04-25T05:54:09;18.13;;;11.63;;
24897;SDS011;12957;49.434;8.684;2023-04-25T05:56:34;17.20;;;10.90;;
24897;SDS011;12957;49.434;8.684;2023-04-25T05:59:00;16.50;;;10.68;;
24897;SDS011;12957;49.434;8.684;2023-04-25T06:01:26;17.45;;;10.77;;
24897;SDS011;12957;49.434;8.684;2023-04-25T06:03:51;15.98;;;10.75;;
24897;SDS011;12957;49.434;8.684;2023-04-25T06:06:17;17.95;;;10.82;;
24897;SDS011;12957;49.434;8.684;2023-04-25T06:08:43;15.35;;;10.45;;
24897;SDS011;12957;49.434;8.684;2023-04-25T06:11:08;16.60;;;10.50;;
24897;SDS011;12957;49.434;8.684;2023-04-25T06:13:34;14.32;;;10.30;;
24897;SDS011;12957;49.434;8.684;2023-04-25T06:16:00;16.38;;;10.38;;
24897;SDS011;12957;49.434;8.684;2023-04-25T06:18:25;16.15;;;11.00;;
24897;SDS011;12957;49.434;8.684;2023-04-25T06:20:51;14.93;;;11.07;;
24897;SDS011;12957;49.434;8.684;2023-04-25T06:23:16;15.50;;;10.65;;
24897;SDS011;12957;49.434;8.684;2023-04-25T06:25:41;14.88;;;10.57;;
24897;SDS011;12957;49.434;8.684;2023-04-25T06:28:07;20.92;;;12.13;;
24897;SDS011;12957;49.434;8.684;2023-04-25T06:30:33;15.70;;;11.05;;
24897;SDS011;12957;49.434;8.684;2023-04-25T06:32:58;16.95;;;12.07;;
24897;SDS011;12957;49.434;8.684;2023-04-25T06:35:24;21.85;;;11.85;;
24897;SDS011;12957;49.434;8.684;2023-04-25T06:37:49;19.73;;;12.38;;
24897;SDS011;12957;49.434;8.684;2023-04-25T06:40:15;21.10;;;13.65;;
24897;SDS011;12957;49.434;8.684;2023-04-25T06:42:42;19.05;;;12.00;;
24897;SDS011;12957;49.434;8.684;2023-04-25T06:45:07;19.85;;;12.63;;
24897;SDS011;12957;49.434;8.684;2023-04-25T06:47:33;19.83;;;12.55;;
24897;SDS011;12957;49.434;8.684;2023-04-25T06:49:59;18.35;;;12.32;;
24897;SDS011;12957;49.434;8.684;2023-04-25T06:52:24;19.30;;;12.52;;
24897;SDS011;12957;49.434;8.684;2023-04-25T06:54:50;15.85;;;10.70;;
24897;SDS011;12957;49.434;8.684;2023-04-25T06:57:15;16.85;;;11.00;;
24897;SDS011;12957;49.434;8.684;2023-04-25T06:59:41;18.13;;;11.30;;
24897;SDS011;12957;49.434;8.684;2023-04-25T07:02:06;19.85;;;11.65;;
24897;SDS011;12957;49.434;8.684;2023-04-25T07:04:32;17.55;;;11.27;;
24897;SDS011;12957;49.434;8.684;2023-04-25T07:06:57;19.83;;;9.80;;
24897;SDS011;12957;49.434;8.684;2023-04-25T07:09:23;17.75;;;10.75;;
24897;SDS011;12957;49.434;8.684;2023-04-25T07:11:48;21.17;;;10.90;;
24897;SDS011;12957;49.434;8.684;2023-04-25T07:14:14;17.27;;;10.90;;
24897;SDS011;12957;49.434;8.684;2023-04-25T07:16:40;19.90;;;11.13;;
24897;SDS011;12957;49.434;8.684;2023-04-25T07:19:05;19.17;;;10.35;;
24897;SDS011;12957;49.434;8.684;2023-04-25T07:21:31;20.80;;;11.70;;
24897;SDS011;12957;49.434;8.684;2023-04-25T07:23:57;17.60;;;10.38;;
24897;SDS011;12957;49.434;8.684;2023-04-25T07:26:33;18.88;;;9.40;;
24897;SDS011;12957;49.434;8.684;2023-04-25T07:28:58;14.20;;;7.93;;
24897;SDS011;12957;49.434;8.684;2023-04-25T07:31:23;13.23;;;8.63;;
24897;SDS011;12957;49.434;8.684;2023-04-25T07:33:49;16.23;;;8.15;;
24897;SDS011;12957;49.434;8.684;2023-04-25T07:36:15;16.65;;;7.88;;
24897;SDS011;12957;49.434;8.684;2023-04-25T07:38:40;13.07;;;7.00;;
24897;SDS011;12957;49.434;8.684;2023-04-25T07:41:06;15.63;;;7.35;;
24897;SDS011;12957;49.434;8.684;2023-04-25T07:43:32;9.70;;;6.47;;
24897;SDS011;12957;49.434;8.684;2023-04-25T07:45:57;10.85;;;6.68;;
24897;SDS011;12957;49.434;8.684;2023-04-25T07:48:23;9.43;;;5.70;;
24897;SDS011;12957;49.434;8.684;2023-04-25T07:50:48;12.15;;;5.47;;
24897;SDS011;12957;49.434;8.684;2023-04-25T07:53:14;14.88;;;6.10;;
24897;SDS011;12957;49.434;8.684;2023-04-25T07:55:40;9.82;;;5.60;;
24897;SDS011;12957;49.434;8.684;2023-04-25T07:58:06;14.98;;;5.97;;
24897;SDS011;12957;49.434;8.684;2023-04-25T08:00:35;13.82;;;6.40;;
24897;SDS011;12957;49.434;8.684;2023-04-25T08:03:00;20.77;;;7.90;;
24897;SDS011;12957;49.434;8.684;2023-04-25T08:05:26;16.77;;;6.85;;
24897;SDS011;12957;49.434;8.684;2023-04-25T08:07:51;15.02;;;7.13;;
24897;SDS011;12957;49.434;8.684;2023-04-25T08:10:17;12.25;;;6.80;;
24897;SDS011;12957;49.434;8.684;2023-04-25T08:12:42;20.30;;;6.70;;
24897;SDS011;12957;49.434;8.684;2023-04-25T08:15:08;11.93;;;7.15;;
24897;SDS011;12957;49.434;8.684;2023-04-25T08:17:34;16.70;;;7.43;;
24897;SDS011;12957;49.434;8.684;2023-04-25T08:20:00;13.23;;;7.38;;
24897;SDS011;12957;49.434;8.684;2023-04-25T08:22:25;14.43;;;7.95;;
24897;SDS011;12957;49.434;8.684;2023-04-25T08:24:51;16.00;;;8.23;;
24897;SDS011;12957;49.434;8.684;2023-04-25T08:27:17;13.90;;;6.80;;
24897;SDS011;12957;49.434;8.684;2023-04-25T08:29:43;20.15;;;8.02;;
24897;SDS011;12957;49.434;8.684;2023-04-25T08:32:08;14.95;;;7.55;;
24897;SDS011;12957;49.434;8.684;2023-04-25T08:34:34;11.65;;;7.40;;
24897;SDS011;12957;49.434;8.684;2023-04-25T08:37:01;15.40;;;7.18;;
24897;SDS011;12957;49.434;8.684;2023-04-25T08:39:26;13.32;;;7.53;;
24897;SDS011;12957;49.434;8.684;2023-04-25T08:41:52;18.83;;;7.93;;
24897;SDS011;12957;49.434;8.684;2023-04-25T08:44:18;14.07;;;7.43;;
24897;SDS011;12957;49.434;8.684;2023-04-25T08:46:45;17.77;;;6.57;;
24897;SDS011;12957;49.434;8.684;2023-04-25T08:49:14;13.52;;;6.40;;
24897;SDS011;12957;49.434;8.684;2023-04-25T08:51:45;11.55;;;6.10;;
24897;SDS011;12957;49.434;8.684;2023-04-25T08:54:16;12.43;;;6.18;;
24897;SDS011;12957;49.434;8.684;2023-04-25T08:56:45;9.80;;;5.60;;
24897;SDS011;12957;49.434;8.684;2023-04-25T08:59:12;13.88;;;5.18;;
24897;SDS011;12957;49.434;8.684;2023-04-25T09:01:38;10.68;;;5.10;;
24897;SDS011;12957;49.434;8.684;2023-04-25T09:04:03;10.57;;;5.30;;
24897;SDS011;12957;49.434;8.684;2023-04-25T09:06:29;10.68;;;4.78;;
24897;SDS011;12957;49.434;8.684;2023-04-25T09:09:00;8.98;;;4.80;;
24897;SDS011;12957;49.434;8.684;2023-04-25T09:11:28;10.63;;;4.45;;
24897;SDS011;12957;49.434;8.684;2023-04-25T09:14:09;10.80;;;4.78;;
24897;SDS011;12957;49.434;8.684;2023-04-25T09:16:35;11.55;;;5.00;;
24897;SDS011;12957;49.434;8.684;2023-04-25T09:19:03;17.60;;;5.20;;
24897;SDS011;12957;49.434;8.684;2023-04-25T09:21:28;9.70;;;4.72;;
24897;SDS011;12957;49.434;8.684;2023-04-25T09:23:55;13.07;;;5.03;;
24897;SDS011;12957;49.434;8.684;2023-04-25T09:26:21;8.10;;;4.40;;
24897;SDS011;12957;49.434;8.684;2023-04-25T09:28:46;9.77;;;3.78;;
24897;SDS011;12957;49.434;8.684;2023-04-25T09:31:21;10.32;;;4.20;;
24897;SDS011;12957;49.434;8.684;2023-04-25T09:33:49;6.60;;;3.83;;
24897;SDS011;12957;49.434;8.684;2023-04-25T09:36:14;4.65;;;3.33;;
24897;SDS011;12957;49.434;8.684;2023-04-25T09:38:44;7.25;;;3.78;;
24897;SDS011;12957;49.434;8.684;2023-04-25T09:41:10;9.45;;;3.50;;
24897;SDS011;12957;49.434;8.684;2023-04-25T09:43:36;5.88;;;3.13;;
24897;SDS011;12957;49.434;8.684;2023-04-25T09:46:02;7.35;;;3.25;;
24897;SDS011;12957;49.434;8.684;2023-04-25T09:48:28;8.45;;;3.67;;
24897;SDS011;12957;49.434;8.684;2023-04-25T09:51:04;12.20;;;3.88;;
24897;SDS011;12957;49.434;8.684;2023-04-25T09:53:34;10.30;;;3.90;;
24897;SDS011;12957;49.434;8.684;2023-04-25T09:56:01;9.23;;;4.10;;
24897;SDS011;12957;49.434;8.684;2023-04-25T09:58:29;8.27;;;4.30;;
24897;SDS011;12957;49.434;8.684;2023-04-25T10:00:55;8.55;;;4.35;;
24897;SDS011;12957;49.434;8.684;2023-04-25T10:03:27;7.90;;;4.10;;
24897;SDS011;12957;49.434;8.684;2023-04-25T10:05:55;7.45;;;3.25;;
24897;SDS011;12957;49.434;8.684;2023-04-25T10:08:24;7.57;;;3.90;;
24897;SDS011;12957;49.434;8.684;2023-04-25T10:10:51;4.85;;;3.60;;
24897;SDS011;12957;49.434;8.684;2023-04-25T10:13:17;11.45;;;3.85;;
24897;SDS011;12957;49.434;8.684;2023-04-25T10:15:43;9.68;;;4.10;;
24897;SDS011;12957;49.434;8.684;2023-04-25T10:18:08;9.65;;;3.80;;
24897;SDS011;12957;49.434;8.684;2023-04-25T10:20:34;10.23;;;4.18;;
24897;SDS011;12957;49.434;8.684;2023-04-25T10:23:03;9.90;;;4.50;;
24897;SDS011;12957;49.434;8.684;2023-04-25T10:25:34;8.77;;;4.30;;
24897;SDS011;12957;49.434;8.684;2023-04-25T10:27:59;6.72;;;4.10;;
24897;SDS011;12957;49.434;8.684;2023-04-25T10:30:27;14.93;;;5.00;;
24897;SDS011;12957;49.434;8.684;2023-04-25T10:32:52;9.25;;;4.40;;
24897;SDS011;12957;49.434;8.684;2023-04-25T10:35:29;10.30;;;4.25;;
24897;SDS011;12957;49.434;8.684;2023-04-25T10:38:05;10.13;;;4.30;;
24897;SDS011;12957;49.434;8.684;2023-04-25T10:40:35;11.38;;;4.07;;
24897;SDS011;12957;49.434;8.684;2023-04-25T10:48:48;7.07;;;3.97;;
24897;SDS011;12957;49.434;8.684;2023-04-25T10:51:16;11.82;;;4.70;;
24897;SDS011;12957;49.434;8.684;2023-04-25T10:56:20;9.07;;;4.07;;
24897;SDS011;12957;49.434;8.684;2023-04-25T10:58:47;10.00;;;4.95;;
24897;SDS011;12957;49.434;8.684;2023-04-25T11:01:13;9.23;;;4.53;;
24897;SDS011;12957;49.434;8.684;2023-04-25T11:03:42;13.90;;;4.72;;
24897;SDS011;12957;49.434;8.684;2023-04-25T11:06:18;10.23;;;4.40;;
24897;SDS011;12957;49.434;8.684;2023-04-25T11:08:49;9.85;;;4.93;;
24897;SDS011;12957;49.434;8.684;2023-04-25T11:11:18;8.95;;;4.10;;
24897;SDS011;12957;49.434;8.684;2023-04-25T11:13:47;14.38;;;5.75;;
24897;SDS011;12957;49.434;8.684;2023-04-25T11:16:13;12.82;;;7.90;;
24897;SDS011;12957;49.434;8.684;2023-04-25T11:18:40;8.95;;;3.85;;
24897;SDS011;12957;49.434;8.684;2023-04-25T11:21:07;12.38;;;4.20;;
24897;SDS011;12957;49.434;8.684;2023-04-25T11:23:32;9.27;;;4.30;;
24897;SDS011;12957;49.434;8.684;2023-04-25T11:25:57;6.72;;;3.15;;
24897;SDS011;12957;49.434;8.684;2023-04-25T11:28:25;8.68;;;3.40;;
24897;SDS011;12957;49.434;8.684;2023-04-25T11:30:51;6.10;;;2.90;;
24897;SDS011;12957;49.434;8.684;2023-04-25T11:33:17;5.82;;;2.95;;
24897;SDS011;12957;49.434;8.684;2023-04-25T11:35:43;7.78;;;3.47;;
24897;SDS011;12957;49.434;8.684;2023-04-25T11:38:11;7.95;;;3.15;;
24897;SDS011;12957;49.434;8.684;2023-04-25T11:40:36;9.52;;;3.33;;
24897;SDS011;12957;49.434;8.684;2023-04-25T11:43:02;8.38;;;3.05;;
24897;SDS011;12957;49.434;8.684;2023-04-25T11:45:28;7.32;;;3.17;;
24897;SDS011;12957;49.434;8.684;2023-04-25T11:47:54;8.77;;;3.00;;
24897;SDS011;12957;49.434;8.684;2023-04-25T11:50:20;5.28;;;2.92;;
24897;SDS011;12957;49.434;8.684;2023-04-25T11:52:46;4.57;;;2.97;;
24897;SDS011;12957;49.434;8.684;2023-04-25T11:57:42;7.40;;;2.95;;
24897;SDS011;12957;49.434;8.684;2023-04-25T12:00:12;5.43;;;2.50;;
24897;SDS011;12957;49.434;8.684;2023-04-25T12:02:45;5.00;;;2.80;;
24897;SDS011;12957;49.434;8.684;2023-04-25T12:05:12;5.30;;;2.47;;
24897;SDS011;12957;49.434;8.684;2023-04-25T12:07:38;5.97;;;2.60;;
24897;SDS011;12957;49.434;8.684;2023-04-25T12:10:13;7.97;;;2.80;;
24897;SDS011;12957;49.434;8.684;2023-04-25T12:12:43;5.43;;;3.08;;
24897;SDS011;12957;49.434;8.684;2023-04-25T12:15:13;6.28;;;2.70;;
24897;SDS011;12957;49.434;8.684;2023-04-25T12:17:48;5.78;;;2.95;;
24897;SDS011;12957;49.434;8.684;2023-04-25T12:20:20;6.40;;;2.88;;
24897;SDS011;12957;49.434;8.684;2023-04-25T12:22:48;4.13;;;2.90;;
24897;SDS011;12957;49.434;8.684;2023-04-25T12:28:16;5.15;;;2.92;;
24897;SDS011;12957;49.434;8.684;2023-04-25T12:33:29;4.30;;;2.55;;
24897;SDS011;12957;49.434;8.684;2023-04-25T12:35:56;6.80;;;2.95;;
24897;SDS011;12957;49.434;8.684;2023-04-25T12:38:28;5.10;;;2.60;;
24897;SDS011;12957;49.434;8.684;2023-04-25T12:40:55;8.85;;;4.03;;
24897;SDS011;12957;49.434;8.684;2023-04-25T12:43:21;11.38;;;2.80;;
24897;SDS011;12957;49.434;8.684;2023-04-25T12:45:50;8.27;;;2.90;;
24897;SDS011;12957;49.434;8.684;2023-04-25T12:48:16;8.70;;;3.08;;
24897;SDS011;12957;49.434;8.684;2023-04-25T12:50:44;5.32;;;2.70;;
24897;SDS011;12957;49.434;8.684;2023-04-25T12:53:12;3.42;;;2.60;;
24897;SDS011;12957;49.434;8.684;2023-04-25T12:55:38;6.22;;;3.08;;
24897;SDS011;12957;49.434;8.684;2023-04-25T12:58:03;4.47;;;2.80;;
24897;SDS011;12957;49.434;8.684;2023-04-25T13:00:29;7.20;;;3.10;;
24897;SDS011;12957;49.434;8.684;2023-04-25T13:02:55;6.82;;;3.28;;
24897;SDS011;12957;49.434;8.684;2023-04-25T13:05:21;3.53;;;2.75;;
24897;SDS011;12957;49.434;8.684;2023-04-25T13:07:47;8.57;;;3.45;;
24897;SDS011;12957;49.434;8.684;2023-04-25T13:10:12;5.00;;;2.97;;
24897;SDS011;12957;49.434;8.684;2023-04-25T13:12:38;7.20;;;3.20;;
24897;SDS011;12957;49.434;8.684;2023-04-25T13:15:03;5.65;;;3.25;;
24897;SDS011;12957;49.434;8.684;2023-04-25T13:17:29;7.22;;;3.58;;
24897;SDS011;12957;49.434;8.684;2023-04-25T13:19:55;4.55;;;3.13;;
24897;SDS011;12957;49.434;8.684;2023-04-25T13:22:20;8.38;;;3.40;;
24897;SDS011;12957;49.434;8.684;2023-04-25T13:24:46;6.85;;;3.70;;
24897;SDS011;12957;49.434;8.684;2023-04-25T13:27:12;9.25;;;3.50;;
24897;SDS011;12957;49.434;8.684;2023-04-25T13:29:38;5.43;;;3.55;;
24897;SDS011;12957;49.434;8.684;2023-04-25T13:32:05;5.15;;;3.33;;
24897;SDS011;12957;49.434;8.684;2023-04-25T13:34:33;5.13;;;3.10;;
24897;SDS011;12957;49.434;8.684;2023-04-25T13:36:59;5.85;;;3.20;;
24897;SDS011;12957;49.434;8.684;2023-04-25T13:39:25;7.07;;;3.47;;
24897;SDS011;12957;49.434;8.684;2023-04-25T13:41:50;7.68;;;4.45;;
24897;SDS011;12957;49.434;8.684;2023-04-25T13:44:16;6.10;;;3.28;;
24897;SDS011;12957;49.434;8.684;2023-04-25T13:46:41;5.90;;;3.63;;
24897;SDS011;12957;49.434;8.684;2023-04-25T13:49:07;10.75;;;3.60;;
24897;SDS011;12957;49.434;8.684;2023-04-25T13:51:32;5.40;;;3.17;;
24897;SDS011;12957;49.434;8.684;2023-04-25T13:53:58;8.60;;;3.83;;
24897;SDS011;12957;49.434;8.684;2023-04-25T13:56:23;8.63;;;3.55;;
24897;SDS011;12957;49.434;8.684;2023-04-25T13:58:50;4.50;;;3.40;;
24897;SDS011;12957;49.434;8.684;2023-04-25T14:01:16;7.30;;;3.67;;
24897;SDS011;12957;49.434;8.684;2023-04-25T14:03:42;4.35;;;3.20;;
24897;SDS011;12957;49.434;8.684;2023-04-25T14:06:07;7.88;;;3.90;;
24897;SDS011;12957;49.434;8.684;2023-04-25T14:08:33;9.32;;;3.55;;
24897;SDS011;12957;49.434;8.684;2023-04-25T14:10:59;5.68;;;3.50;;
24897;SDS011;12957;49.434;8.684;2023-04-25T14:13:25;6.88;;;3.55;;
24897;SDS011;12957;49.434;8.684;2023-04-25T14:15:51;4.90;;;3.30;;
24897;SDS011;12957;49.434;8.684;2023-04-25T14:18:16;10.32;;;3.75;;
24897;SDS011;12957;49.434;8.684;2023-04-25T14:20:42;7.22;;;3.50;;
24897;SDS011;12957;49.434;8.684;2023-04-25T14:23:07;4.78;;;3.42;;
24897;SDS011;12957;49.434;8.684;2023-04-25T14:25:33;11.98;;;4.35;;
24897;SDS011;12957;49.434;8.684;2023-04-25T14:27:59;7.80;;;3.92;;
24897;SDS011;12957;49.434;8.684;2023-04-25T14:30:24;6.47;;;3.67;;
24897;SDS011;12957;49.434;8.684;2023-04-25T14:32:50;8.40;;;3.20;;
24897;SDS011;12957;49.434;8.684;2023-04-25T14:35:18;11.18;;;3.55;;
24897;SDS011;12957;49.434;8.684;2023-04-25T14:37:43;8.75;;;3.50;;
24897;SDS011;12957;49.434;8.684;2023-04-25T14:40:09;6.15;;;3.45;;
24897;SDS011;12957;49.434;8.684;2023-04-25T14:42:39;6.88;;;3.60;;
24897;SDS011;12957;49.434;8.684;2023-04-25T14:45:05;11.02;;;3.70;;
24897;SDS011;12957;49.434;8.684;2023-04-25T14:47:32;5.70;;;3.47;;
24897;SDS011;12957;49.434;8.684;2023-04-25T14:49:57;6.45;;;3.35;;